sensor_id;sensor_type;location;lat;lon;timestamp;temperature;humidity
8541;DHT22;4308;51.294;6.590;2022-08-20T10:50:48;25.40;99.90
8541;DHT22;4308;51.294;6.590;2022-08-20T10:53:16;26.10;99.90
8541;DHT22;4308;51.294;6.590;2022-08-20T10:55:43;26.40;99.90
8541;DHT22;4308;51.294;6.590;2022-08-20T10:58:11;26.50;99.90
8541;DHT22;4308;51.294;6.590;2022-08-20T11:00:39;26.50;99.90
8541;DHT22;4308;51.294;6.590;2022-08-20T11:03:07;26.40;99.90
8541;DHT22;4308;51.294;6.590;2022-08-20T11:05:34;26.40;99.90
8541;DHT22;4308;51.294;6.590;2022-08-20T11:08:03;26.30;99.90
8541;DHT22;4308;51.294;6.590;2022-08-20T11:10:32;26.50;99.90
8541;DHT22;4308;51.294;6.590;2022-08-20T11:13:02;26.50;99.90
8541;DHT22;4308;51.294;6.590;2022-08-20T11:15:29;26.80;99.90
8541;DHT22;4308;51.294;6.590;2022-08-20T11:17:56;26.90;99.90
8541;DHT22;4308;51.294;6.590;2022-08-20T11:20:25;26.90;99.90
8541;DHT22;4308;51.294;6.590;2022-08-20T11:22:53;27.00;99.90
8541;DHT22;4308;51.294;6.590;2022-08-20T11:25:20;27.20;99.90
8541;DHT22;4308;51.294;6.590;2022-08-20T11:27:49;26.90;99.90
8541;DHT22;4308;51.294;6.590;2022-08-20T11:30:29;26.80;99.90
8541;DHT22;4308;51.294;6.590;2022-08-20T11:32:58;26.40;99.90
8541;DHT22;4308;51.294;6.590;2022-08-20T11:35:28;26.40;99.90
8541;DHT22;4308;51.294;6.590;2022-08-20T11:38:16;26.40;99.90
8541;DHT22;4308;51.294;6.590;2022-08-20T11:40:44;26.50;99.90
8541;DHT22;4308;51.294;6.590;2022-08-20T11:43:11;26.90;99.90
8541;DHT22;4308;51.294;6.590;2022-08-20T11:45:50;27.10;99.90
8541;DHT22;4308;51.294;6.590;2022-08-20T11:48:19;27.30;99.90
8541;DHT22;4308;51.294;6.590;2022-08-20T11:50:47;27.50;99.90
8541;DHT22;4308;51.294;6.590;2022-08-20T11:53:14;27.40;99.90
8541;DHT22;4308;51.294;6.590;2022-08-20T11:55:43;27.50;99.90
8541;DHT22;4308;51.294;6.590;2022-08-20T11:58:10;27.70;99.90
8541;DHT22;4308;51.294;6.590;2022-08-20T12:00:37;27.80;99.90
8541;DHT22;4308;51.294;6.590;2022-08-20T12:03:06;28.00;99.90
8541;DHT22;4308;51.294;6.590;2022-08-20T12:05:37;28.00;99.90
8541;DHT22;4308;51.294;6.590;2022-08-20T12:08:05;27.70;99.90
8541;DHT22;4308;51.294;6.590;2022-08-20T12:10:33;27.50;99.90
8541;DHT22;4308;51.294;6.590;2022-08-20T12:13:00;27.40;99.90
8541;DHT22;4308;51.294;6.590;2022-08-20T12:15:35;27.40;99.90
8541;DHT22;4308;51.294;6.590;2022-08-20T12:18:07;27.50;99.90
8541;DHT22;4308;51.294;6.590;2022-08-20T12:20:35;27.60;99.90
8541;DHT22;4308;51.294;6.590;2022-08-20T12:23:03;27.60;99.90
8541;DHT22;4308;51.294;6.590;2022-08-20T12:25:30;27.50;99.90
8541;DHT22;4308;51.294;6.590;2022-08-20T12:27:57;27.70;99.90
8541;DHT22;4308;51.294;6.590;2022-08-20T12:30:25;27.60;99.90
8541;DHT22;4308;51.294;6.590;2022-08-20T12:32:52;27.60;99.90
8541;DHT22;4308;51.294;6.590;2022-08-20T12:35:19;27.50;99.90
8541;DHT22;4308;51.294;6.590;2022-08-20T12:37:47;27.20;99.90
8541;DHT22;4308;51.294;6.590;2022-08-20T12:40:20;27.30;99.90
8541;DHT22;4308;51.294;6.590;2022-08-20T12:43:03;27.20;99.90
8541;DHT22;4308;51.294;6.590;2022-08-20T12:45:31;27.30;99.90
8541;DHT22;4308;51.294;6.590;2022-08-20T12:48:02;27.40;99.90
8541;DHT22;4308;51.294;6.590;2022-08-20T12:50:29;27.40;99.90
8541;DHT22;4308;51.294;6.590;2022-08-20T12:52:59;27.40;99.90
8541;DHT22;4308;51.294;6.590;2022-08-20T12:55:27;27.40;99.90
8541;DHT22;4308;51.294;6.590;2022-08-20T12:57:57;27.30;99.90
8541;DHT22;4308;51.294;6.590;2022-08-20T13:00:31;27.20;99.90
8541;DHT22;4308;51.294;6.590;2022-08-20T13:03:00;27.20;99.90
8541;DHT22;4308;51.294;6.590;2022-08-20T13:05:29;27.40;99.90
8541;DHT22;4308;51.294;6.590;2022-08-20T13:07:57;27.50;99.90
8541;DHT22;4308;51.294;6.590;2022-08-20T13:10:30;27.60;99.90
8541;DHT22;4308;51.294;6.590;2022-08-20T13:12:58;27.70;99.90
8541;DHT22;4308;51.294;6.590;2022-08-20T13:15:25;27.70;99.90
8541;DHT22;4308;51.294;6.590;2022-08-20T13:17:55;28.00;99.90
8541;DHT22;4308;51.294;6.590;2022-08-20T13:20:24;28.30;99.90
8541;DHT22;4308;51.294;6.590;2022-08-20T13:22:52;28.40;99.90
8541;DHT22;4308;51.294;6.590;2022-08-20T13:25:20;28.60;99.90
8541;DHT22;4308;51.294;6.590;2022-08-20T13:27:48;28.60;99.90
8541;DHT22;4308;51.294;6.590;2022-08-20T13:30:18;28.70;99.90
8541;DHT22;4308;51.294;6.590;2022-08-20T13:32:46;28.80;99.90
8541;DHT22;4308;51.294;6.590;2022-08-20T13:35:14;28.70;99.90
8541;DHT22;4308;51.294;6.590;2022-08-20T13:37:41;28.60;99.60
8541;DHT22;4308;51.294;6.590;2022-08-20T13:40:09;28.50;99.90
8541;DHT22;4308;51.294;6.590;2022-08-20T13:42:37;28.60;99.90
8541;DHT22;4308;51.294;6.590;2022-08-20T13:45:05;28.70;99.70
8541;DHT22;4308;51.294;6.590;2022-08-20T13:47:35;28.80;98.70
8541;DHT22;4308;51.294;6.590;2022-08-20T13:50:06;28.70;98.60
8541;DHT22;4308;51.294;6.590;2022-08-20T13:52:35;28.70;98.60
8541;DHT22;4308;51.294;6.590;2022-08-20T13:55:04;28.60;98.10
8541;DHT22;4308;51.294;6.590;2022-08-20T13:57:33;28.80;98.70
8541;DHT22;4308;51.294;6.590;2022-08-20T14:00:02;28.90;98.10
8541;DHT22;4308;51.294;6.590;2022-08-20T14:02:30;29.10;98.40
8541;DHT22;4308;51.294;6.590;2022-08-20T14:04:57;29.30;98.00
8541;DHT22;4308;51.294;6.590;2022-08-20T14:07:27;29.20;97.30
8541;DHT22;4308;51.294;6.590;2022-08-20T14:10:03;29.10;97.10
8541;DHT22;4308;51.294;6.590;2022-08-20T14:12:31;29.00;96.10
8541;DHT22;4308;51.294;6.590;2022-08-20T14:14:58;29.10;97.00
8541;DHT22;4308;51.294;6.590;2022-08-20T14:17:31;29.00;97.20
8541;DHT22;4308;51.294;6.590;2022-08-20T14:20:01;28.90;97.00
8541;DHT22;4308;51.294;6.590;2022-08-20T14:22:29;28.70;96.80
8541;DHT22;4308;51.294;6.590;2022-08-20T14:24:56;28.50;96.50
8541;DHT22;4308;51.294;6.590;2022-08-20T14:27:23;28.40;96.80
8541;DHT22;4308;51.294;6.590;2022-08-20T14:29:58;28.30;96.00
8541;DHT22;4308;51.294;6.590;2022-08-20T14:32:26;28.20;96.70
8541;DHT22;4308;51.294;6.590;2022-08-20T14:34:54;28.00;96.50
8541;DHT22;4308;51.294;6.590;2022-08-20T14:37:31;27.90;96.30
8541;DHT22;4308;51.294;6.590;2022-08-20T14:40:01;27.90;96.20
8541;DHT22;4308;51.294;6.590;2022-08-20T14:42:29;27.90;95.00
8541;DHT22;4308;51.294;6.590;2022-08-20T14:44:57;27.80;94.60
8541;DHT22;4308;51.294;6.590;2022-08-20T14:47:28;27.80;95.90
8541;DHT22;4308;51.294;6.590;2022-08-20T14:49:58;27.90;95.50
8541;DHT22;4308;51.294;6.590;2022-08-20T14:52:26;27.90;95.00
8541;DHT22;4308;51.294;6.590;2022-08-20T14:54:54;27.90;94.90
8541;DHT22;4308;51.294;6.590;2022-08-20T14:57:21;27.90;94.30
8541;DHT22;4308;51.294;6.590;2022-08-20T14:59:51;27.90;94.20
8541;DHT22;4308;51.294;6.590;2022-08-20T15:02:19;27.90;93.40
8541;DHT22;4308;51.294;6.590;2022-08-20T15:04:46;27.90;93.70
8541;DHT22;4308;51.294;6.590;2022-08-20T15:07:24;27.90;93.30
8541;DHT22;4308;51.294;6.590;2022-08-20T15:09:53;28.00;93.50
8541;DHT22;4308;51.294;6.590;2022-08-20T15:12:22;28.00;93.70
8541;DHT22;4308;51.294;6.590;2022-08-20T15:14:49;27.80;92.30
8541;DHT22;4308;51.294;6.590;2022-08-20T15:17:22;27.90;93.30
8541;DHT22;4308;51.294;6.590;2022-08-20T15:19:50;27.80;93.10
8541;DHT22;4308;51.294;6.590;2022-08-20T15:22:18;27.50;92.60
8541;DHT22;4308;51.294;6.590;2022-08-20T15:24:46;27.30;93.60
8541;DHT22;4308;51.294;6.590;2022-08-20T15:27:19;27.40;93.60
8541;DHT22;4308;51.294;6.590;2022-08-20T15:29:50;27.40;93.50
8541;DHT22;4308;51.294;6.590;2022-08-20T15:32:18;27.10;92.90
8541;DHT22;4308;51.294;6.590;2022-08-20T15:34:46;27.10;92.90
8541;DHT22;4308;51.294;6.590;2022-08-20T15:37:22;26.90;92.20
8541;DHT22;4308;51.294;6.590;2022-08-20T15:39:50;27.00;91.50
8541;DHT22;4308;51.294;6.590;2022-08-20T15:42:19;27.00;92.00
8541;DHT22;4308;51.294;6.590;2022-08-20T15:44:46;26.90;91.30
8541;DHT22;4308;51.294;6.590;2022-08-20T15:47:25;27.00;92.40
8541;DHT22;4308;51.294;6.590;2022-08-20T15:50:06;27.00;90.90
8541;DHT22;4308;51.294;6.590;2022-08-20T15:52:41;27.20;92.20
8541;DHT22;4308;51.294;6.590;2022-08-20T15:55:12;27.20;92.20
8541;DHT22;4308;51.294;6.590;2022-08-20T15:58:00;27.00;90.90
8541;DHT22;4308;51.294;6.590;2022-08-20T16:00:46;27.00;92.30
8541;DHT22;4308;51.294;6.590;2022-08-20T16:06:31;27.00;90.70
8541;DHT22;4308;51.294;6.590;2022-08-20T16:14:40;26.50;91.30
8541;DHT22;4308;51.294;6.590;2022-08-20T16:17:18;26.40;91.40
8541;DHT22;4308;51.294;6.590;2022-08-20T16:22:19;26.20;93.40
8541;DHT22;4308;51.294;6.590;2022-08-20T16:24:47;26.10;93.50
8541;DHT22;4308;51.294;6.590;2022-08-20T16:30:19;25.90;93.00
8541;DHT22;4308;51.294;6.590;2022-08-20T16:32:57;25.90;93.00
8541;DHT22;4308;51.294;6.590;2022-08-20T16:35:30;25.90;93.10
8541;DHT22;4308;51.294;6.590;2022-08-20T16:40:44;26.10;92.70
8541;DHT22;4308;51.294;6.590;2022-08-20T16:43:28;26.20;92.70
8541;DHT22;4308;51.294;6.590;2022-08-20T16:46:23;26.30;92.80
8541;DHT22;4308;51.294;6.590;2022-08-20T16:48:57;26.40;92.80
8541;DHT22;4308;51.294;6.590;2022-08-20T16:54:03;26.40;92.80
8541;DHT22;4308;51.294;6.590;2022-08-20T16:56:45;26.30;93.00
8541;DHT22;4308;51.294;6.590;2022-08-20T16:59:18;26.10;92.70
8541;DHT22;4308;51.294;6.590;2022-08-20T17:02:04;26.10;93.00
8541;DHT22;4308;51.294;6.590;2022-08-20T17:04:49;26.00;93.30
8541;DHT22;4308;51.294;6.590;2022-08-20T17:07:48;25.90;93.50
8541;DHT22;4308;51.294;6.590;2022-08-20T17:10:27;25.80;93.60
8541;DHT22;4308;51.294;6.590;2022-08-20T17:12:59;25.70;93.50
8541;DHT22;4308;51.294;6.590;2022-08-20T17:15:29;25.60;93.80
8541;DHT22;4308;51.294;6.590;2022-08-20T17:17:56;25.50;93.90
8541;DHT22;4308;51.294;6.590;2022-08-20T17:20:25;25.50;94.00
8541;DHT22;4308;51.294;6.590;2022-08-20T17:23:10;25.50;94.00
8541;DHT22;4308;51.294;6.590;2022-08-20T17:25:39;25.40;93.50
8541;DHT22;4308;51.294;6.590;2022-08-20T17:28:14;25.30;93.80
8541;DHT22;4308;51.294;6.590;2022-08-20T17:30:42;25.20;93.30
8541;DHT22;4308;51.294;6.590;2022-08-20T17:36:19;25.10;94.20
8541;DHT22;4308;51.294;6.590;2022-08-20T17:38:51;25.10;94.20
8541;DHT22;4308;51.294;6.590;2022-08-20T17:41:27;25.10;93.80
8541;DHT22;4308;51.294;6.590;2022-08-20T17:44:08;25.00;94.60
8541;DHT22;4308;51.294;6.590;2022-08-20T17:46:41;24.90;94.70
8541;DHT22;4308;51.294;6.590;2022-08-20T17:49:16;24.90;94.20
8541;DHT22;4308;51.294;6.590;2022-08-20T17:51:51;24.80;94.30
8541;DHT22;4308;51.294;6.590;2022-08-20T17:54:29;24.80;94.90
8541;DHT22;4308;51.294;6.590;2022-08-20T17:57:03;24.70;95.30
8541;DHT22;4308;51.294;6.590;2022-08-20T17:59:40;24.70;94.60
8541;DHT22;4308;51.294;6.590;2022-08-20T18:02:29;24.70;94.70
8541;DHT22;4308;51.294;6.590;2022-08-20T18:04:56;24.60;95.10
8541;DHT22;4308;51.294;6.590;2022-08-20T18:07:26;24.60;95.10
8541;DHT22;4308;51.294;6.590;2022-08-20T18:10:05;24.60;95.50
8541;DHT22;4308;51.294;6.590;2022-08-20T18:15:20;24.50;95.20
8541;DHT22;4308;51.294;6.590;2022-08-20T18:24:09;24.40;95.10
8541;DHT22;4308;51.294;6.590;2022-08-20T18:27:00;24.30;95.20
8541;DHT22;4308;51.294;6.590;2022-08-20T18:29:39;24.20;95.60
8541;DHT22;4308;51.294;6.590;2022-08-20T18:34:52;23.90;95.40
8541;DHT22;4308;51.294;6.590;2022-08-20T18:37:23;23.70;95.80
8541;DHT22;4308;51.294;6.590;2022-08-20T18:40:05;23.60;96.40
8541;DHT22;4308;51.294;6.590;2022-08-20T18:42:35;23.40;96.20
8541;DHT22;4308;51.294;6.590;2022-08-20T18:45:04;23.30;96.50
8541;DHT22;4308;51.294;6.590;2022-08-20T18:50:29;23.00;96.30
8541;DHT22;4308;51.294;6.590;2022-08-20T18:56:01;22.70;97.20
8541;DHT22;4308;51.294;6.590;2022-08-20T18:58:35;22.70;97.40
8541;DHT22;4308;51.294;6.590;2022-08-20T19:01:11;22.60;97.30
8541;DHT22;4308;51.294;6.590;2022-08-20T19:03:51;22.50;97.30
8541;DHT22;4308;51.294;6.590;2022-08-20T19:09:04;22.40;96.80
8541;DHT22;4308;51.294;6.590;2022-08-20T19:20:22;22.20;97.60
8541;DHT22;4308;51.294;6.590;2022-08-20T19:22:51;22.20;97.60
8541;DHT22;4308;51.294;6.590;2022-08-20T19:25:39;22.10;98.00
8541;DHT22;4308;51.294;6.590;2022-08-20T19:28:22;22.10;98.10
8541;DHT22;4308;51.294;6.590;2022-08-20T19:30:50;22.00;98.10
8541;DHT22;4308;51.294;6.590;2022-08-20T19:33:29;21.90;98.20
8541;DHT22;4308;51.294;6.590;2022-08-20T19:36:16;21.80;98.20
8541;DHT22;4308;51.294;6.590;2022-08-20T19:38:53;21.80;98.40
8541;DHT22;4308;51.294;6.590;2022-08-20T19:41:24;21.70;98.80
8541;DHT22;4308;51.294;6.590;2022-08-20T19:44:01;21.70;99.00
8541;DHT22;4308;51.294;6.590;2022-08-20T19:46:34;21.60;99.10
8541;DHT22;4308;51.294;6.590;2022-08-20T19:54:31;21.50;99.30
8541;DHT22;4308;51.294;6.590;2022-08-20T19:57:04;21.40;99.60
8541;DHT22;4308;51.294;6.590;2022-08-20T19:59:32;21.40;99.80
8541;DHT22;4308;51.294;6.590;2022-08-20T20:02:01;21.40;99.80
8541;DHT22;4308;51.294;6.590;2022-08-20T20:04:39;21.30;99.90
8541;DHT22;4308;51.294;6.590;2022-08-20T20:07:25;21.30;99.90
8541;DHT22;4308;51.294;6.590;2022-08-20T20:09:56;21.30;99.90
8541;DHT22;4308;51.294;6.590;2022-08-20T20:12:24;21.20;99.90
8541;DHT22;4308;51.294;6.590;2022-08-20T20:14:53;21.20;99.90
8541;DHT22;4308;51.294;6.590;2022-08-20T20:17:23;21.10;99.90
8541;DHT22;4308;51.294;6.590;2022-08-20T20:19:53;21.10;99.90
8541;DHT22;4308;51.294;6.590;2022-08-20T20:22:47;21.00;99.90
8541;DHT22;4308;51.294;6.590;2022-08-20T20:25:22;21.00;99.90
8541;DHT22;4308;51.294;6.590;2022-08-20T20:27:52;20.90;99.90
8541;DHT22;4308;51.294;6.590;2022-08-20T20:30:31;20.90;99.90
8541;DHT22;4308;51.294;6.590;2022-08-20T20:33:01;20.80;99.90
8541;DHT22;4308;51.294;6.590;2022-08-20T20:35:36;20.80;99.90
8541;DHT22;4308;51.294;6.590;2022-08-20T20:38:27;20.70;99.90
8541;DHT22;4308;51.294;6.590;2022-08-20T20:40:56;20.70;99.90
8541;DHT22;4308;51.294;6.590;2022-08-20T20:43:36;20.60;99.90
8541;DHT22;4308;51.294;6.590;2022-08-20T20:46:21;20.70;99.90
8541;DHT22;4308;51.294;6.590;2022-08-20T20:48:56;20.60;99.90
8541;DHT22;4308;51.294;6.590;2022-08-20T20:51:28;20.50;99.90
8541;DHT22;4308;51.294;6.590;2022-08-20T20:54:03;20.50;99.90
8541;DHT22;4308;51.294;6.590;2022-08-20T20:56:39;20.50;99.90
8541;DHT22;4308;51.294;6.590;2022-08-20T20:59:09;20.40;99.90
8541;DHT22;4308;51.294;6.590;2022-08-20T21:01:37;20.40;99.90
8541;DHT22;4308;51.294;6.590;2022-08-20T21:04:21;20.30;99.90
8541;DHT22;4308;51.294;6.590;2022-08-20T21:06:50;20.20;99.90
8541;DHT22;4308;51.294;6.590;2022-08-20T21:09:18;20.20;99.90
8541;DHT22;4308;51.294;6.590;2022-08-20T21:11:46;20.10;99.90
8541;DHT22;4308;51.294;6.590;2022-08-20T21:14:14;20.00;99.90
8541;DHT22;4308;51.294;6.590;2022-08-20T21:16:42;20.00;99.90
8541;DHT22;4308;51.294;6.590;2022-08-20T21:19:10;19.90;99.90
8541;DHT22;4308;51.294;6.590;2022-08-20T21:21:39;19.90;99.90
8541;DHT22;4308;51.294;6.590;2022-08-20T21:24:07;19.80;99.90
8541;DHT22;4308;51.294;6.590;2022-08-20T21:26:35;19.80;99.90
8541;DHT22;4308;51.294;6.590;2022-08-20T21:29:04;19.70;99.90
8541;DHT22;4308;51.294;6.590;2022-08-20T21:31:41;19.70;99.90
8541;DHT22;4308;51.294;6.590;2022-08-20T21:34:13;19.70;99.90
8541;DHT22;4308;51.294;6.590;2022-08-20T21:36:41;19.70;99.90
8541;DHT22;4308;51.294;6.590;2022-08-20T21:39:09;19.60;99.90
8541;DHT22;4308;51.294;6.590;2022-08-20T21:41:38;19.60;99.90
8541;DHT22;4308;51.294;6.590;2022-08-20T21:44:14;19.50;99.90
8541;DHT22;4308;51.294;6.590;2022-08-20T21:46:48;19.40;99.90
8541;DHT22;4308;51.294;6.590;2022-08-20T21:49:16;19.30;99.90
8541;DHT22;4308;51.294;6.590;2022-08-20T21:51:43;19.20;99.90
8541;DHT22;4308;51.294;6.590;2022-08-20T21:54:11;19.20;99.90
8541;DHT22;4308;51.294;6.590;2022-08-20T21:56:38;19.10;99.90
8541;DHT22;4308;51.294;6.590;2022-08-20T21:59:06;19.10;99.90
8541;DHT22;4308;51.294;6.590;2022-08-20T22:01:38;19.00;99.90
8541;DHT22;4308;51.294;6.590;2022-08-20T22:04:05;18.90;99.90
8541;DHT22;4308;51.294;6.590;2022-08-20T22:06:33;18.90;99.90
8541;DHT22;4308;51.294;6.590;2022-08-20T22:09:00;18.80;99.90
8541;DHT22;4308;51.294;6.590;2022-08-20T22:11:27;18.80;99.90
8541;DHT22;4308;51.294;6.590;2022-08-20T22:13:55;18.80;99.90
8541;DHT22;4308;51.294;6.590;2022-08-20T22:16:23;18.70;99.90
8541;DHT22;4308;51.294;6.590;2022-08-20T22:18:50;18.70;99.90
8541;DHT22;4308;51.294;6.590;2022-08-20T22:21:21;18.60;99.90
8541;DHT22;4308;51.294;6.590;2022-08-20T22:23:50;18.50;99.90
8541;DHT22;4308;51.294;6.590;2022-08-20T22:26:18;18.50;99.90
8541;DHT22;4308;51.294;6.590;2022-08-20T22:28:46;18.40;99.90
8541;DHT22;4308;51.294;6.590;2022-08-20T22:31:23;18.40;99.90
8541;DHT22;4308;51.294;6.590;2022-08-20T22:33:51;18.40;99.90
8541;DHT22;4308;51.294;6.590;2022-08-20T22:36:19;18.30;99.90
8541;DHT22;4308;51.294;6.590;2022-08-20T22:38:46;18.30;99.90
8541;DHT22;4308;51.294;6.590;2022-08-20T22:41:21;18.20;99.90
8541;DHT22;4308;51.294;6.590;2022-08-20T22:43:49;18.20;99.90
8541;DHT22;4308;51.294;6.590;2022-08-20T22:46:27;18.20;99.90
8541;DHT22;4308;51.294;6.590;2022-08-20T22:48:56;18.20;99.90
8541;DHT22;4308;51.294;6.590;2022-08-20T22:51:28;18.20;99.90
8541;DHT22;4308;51.294;6.590;2022-08-20T22:53:57;18.20;99.90
8541;DHT22;4308;51.294;6.590;2022-08-20T22:56:25;18.20;99.90
8541;DHT22;4308;51.294;6.590;2022-08-20T22:58:56;18.20;99.90
8541;DHT22;4308;51.294;6.590;2022-08-20T23:01:24;18.30;99.90
8541;DHT22;4308;51.294;6.590;2022-08-20T23:03:52;18.30;99.90
8541;DHT22;4308;51.294;6.590;2022-08-20T23:06:20;18.30;99.90
8541;DHT22;4308;51.294;6.590;2022-08-20T23:08:48;18.40;99.90
8541;DHT22;4308;51.294;6.590;2022-08-20T23:11:16;18.50;99.90
8541;DHT22;4308;51.294;6.590;2022-08-20T23:13:43;18.60;99.90
8541;DHT22;4308;51.294;6.590;2022-08-20T23:16:11;18.60;99.90
8541;DHT22;4308;51.294;6.590;2022-08-20T23:18:39;18.60;99.90
8541;DHT22;4308;51.294;6.590;2022-08-20T23:21:06;18.60;99.90
8541;DHT22;4308;51.294;6.590;2022-08-20T23:23:33;18.60;99.90
8541;DHT22;4308;51.294;6.590;2022-08-20T23:26:01;18.60;99.90
8541;DHT22;4308;51.294;6.590;2022-08-20T23:28:28;18.60;99.90
8541;DHT22;4308;51.294;6.590;2022-08-20T23:30:56;18.60;99.90
8541;DHT22;4308;51.294;6.590;2022-08-20T23:33:23;18.60;99.90
8541;DHT22;4308;51.294;6.590;2022-08-20T23:35:50;18.60;99.90
8541;DHT22;4308;51.294;6.590;2022-08-20T23:38:18;18.60;99.90
8541;DHT22;4308;51.294;6.590;2022-08-20T23:40:45;18.50;99.90
8541;DHT22;4308;51.294;6.590;2022-08-20T23:43:12;18.50;99.90
8541;DHT22;4308;51.294;6.590;2022-08-20T23:45:39;18.40;99.90
8541;DHT22;4308;51.294;6.590;2022-08-20T23:48:07;18.40;99.90
8541;DHT22;4308;51.294;6.590;2022-08-20T23:50:35;18.40;99.90
8541;DHT22;4308;51.294;6.590;2022-08-20T23:53:03;18.50;99.90
8541;DHT22;4308;51.294;6.590;2022-08-20T23:55:31;18.40;99.90
8541;DHT22;4308;51.294;6.590;2022-08-20T23:57:59;18.30;99.90
